Time;durP1;ratioP1;P1;durP2;ratioP2;P2;SDS_P1;SDS_P2;PMS_P1;PMS_P2;Temp;Humidity;BMP_temperature;BMP_pressure;BME280_temperature;BME280_humidity;BME280_pressure;Samples;Min_cycle;Max_cycle;Signal;HPM_P1;HPM_P2
2023/01/17 00:01:28;;;;;;;15.70;6.33;;;;;;;10.65;64.77;98157.78;5072863;28;20197;-92
2023/01/17 00:12:06;;;;;;;17.77;6.93;;;;;;;10.28;65.34;98159.41;5073994;28;20733;-92
2023/01/17 00:14:32;;;;;;;18.87;6.40;;;;;;;10.27;65.62;98160.38;5072577;28;20192;-93
2023/01/17 00:16:59;;;;;;;14.07;6.60;;;;;;;10.08;65.77;98150.25;5072568;28;20612;-92
2023/01/17 01:34:02;;;;;;;10.10;3.40;;;;;;;11.23;77.41;98057.53;5073438;28;20182;-92
2023/01/17 01:36:28;;;;;;;7.53;3.60;;;;;;;11.25;77.07;98061.72;5075069;28;20253;-91
2023/01/17 01:38:53;;;;;;;6.80;3.30;;;;;;;11.20;77.57;98069.06;5075943;28;20630;-89
2023/01/17 01:41:19;;;;;;;7.23;3.30;;;;;;;11.17;78.06;98066.66;5075906;28;20182;-91
2023/01/17 01:43:46;;;;;;;6.77;3.13;;;;;;;11.23;78.21;98068.84;5074999;28;20605;-91
2023/01/17 01:46:40;;;;;;;6.17;2.90;;;;;;;11.27;78.37;98065.03;5075259;28;20176;-89
2023/01/17 01:49:16;;;;;;;5.37;3.00;;;;;;;11.25;78.08;98055.63;5076088;28;20157;-89
2023/01/17 01:51:47;;;;;;;5.27;2.90;;;;;;;11.23;78.87;98047.03;5076020;28;20173;-91
2023/01/17 01:54:23;;;;;;;8.10;3.23;;;;;;;11.30;78.55;98061.38;5076262;28;20167;-89
2023/01/17 01:56:51;;;;;;;6.60;3.27;;;;;;;11.41;78.33;98061.44;5075909;28;20164;-90
2023/01/17 01:59:20;;;;;;;11.77;3.80;;;;;;;11.48;78.07;98066.13;5075758;28;20219;-89
2023/01/17 02:01:50;;;;;;;6.63;2.73;;;;;;;11.81;76.71;98062.00;5075473;28;20226;-89
2023/01/17 02:04:17;;;;;;;9.23;3.67;;;;;;;12.01;75.57;98050.81;5075990;28;20248;-89
2023/01/17 02:06:48;;;;;;;6.10;3.20;;;;;;;11.97;75.93;98038.88;5075443;28;20226;-89
2023/01/17 02:09:16;;;;;;;8.40;2.77;;;;;;;12.00;75.87;98046.53;5075697;28;20157;-90
2023/01/17 02:11:44;;;;;;;5.87;3.40;;;;;;;12.10;75.58;98037.00;5074348;28;20183;-90
2023/01/17 02:14:17;;;;;;;5.90;3.23;;;;;;;12.22;74.47;98028.19;5075768;28;20188;-90
2023/01/17 02:16:45;;;;;;;7.57;3.53;;;;;;;12.28;74.70;98031.19;5075670;28;20173;-90
2023/01/17 02:19:32;;;;;;;6.40;3.03;;;;;;;12.40;73.75;98032.00;5075467;28;20204;-90
2023/01/17 02:22:16;;;;;;;5.43;3.10;;;;;;;12.41;73.00;98028.44;5075205;28;20176;-89
2023/01/17 02:25:14;;;;;;;8.27;3.13;;;;;;;12.55;72.27;98041.31;5075717;28;20586;-90
2023/01/17 02:28:02;;;;;;;6.00;3.03;;;;;;;12.37;73.20;98039.31;5074454;28;20658;-90
2023/01/17 02:30:34;;;;;;;5.70;3.20;;;;;;;12.26;73.74;98040.94;5075507;28;20611;-89
2023/01/17 02:33:18;;;;;;;6.93;3.47;;;;;;;12.26;73.78;98030.44;5074862;28;20253;-90
2023/01/17 02:35:53;;;;;;;6.67;3.10;;;;;;;12.27;74.72;98036.53;5075197;28;20215;-90
2023/01/17 02:39:05;;;;;;;7.17;3.30;;;;;;;12.32;74.14;98031.75;5073817;28;20204;-89
2023/01/17 02:41:43;;;;;;;13.87;3.87;;;;;;;12.35;73.72;98034.16;5074397;28;20343;-89
2023/01/17 02:44:14;;;;;;;12.13;3.73;;;;;;;12.46;73.41;98034.19;5074713;28;20170;-90
2023/01/17 02:46:48;;;;;;;5.23;3.23;;;;;;;12.60;72.18;98036.56;5074791;28;20614;-89
2023/01/17 02:49:16;;;;;;;9.50;3.97;;;;;;;12.52;72.38;98024.97;5074300;28;20165;-90
2023/01/17 02:51:56;;;;;;;10.27;2.87;;;;;;;12.33;72.93;98020.31;5074852;28;20175;-90
2023/01/17 02:54:55;;;;;;;6.13;3.20;;;;;;;12.03;75.42;98028.75;5074800;28;20161;-87
2023/01/17 02:58:01;;;;;;;5.60;3.00;;;;;;;12.32;74.76;98034.41;5073375;28;20203;-89
2023/01/17 03:00:43;;;;;;;9.13;2.63;;;;;;;12.30;74.93;98016.13;5074920;28;20256;-89
2023/01/17 03:03:26;;;;;;;6.73;3.20;;;;;;;12.29;75.40;98030.22;5074306;28;20196;-90
2023/01/17 03:06:34;;;;;;;7.10;3.50;;;;;;;12.34;75.94;98029.88;5074516;28;20244;-89
2023/01/17 03:09:01;;;;;;;9.57;3.53;;;;;;;12.42;76.18;98027.47;5072781;28;20192;-90
2023/01/17 03:11:27;;;;;;;14.40;3.67;;;;;;;12.55;75.50;98025.56;5074139;28;20176;-90
2023/01/17 03:13:56;;;;;;;5.63;3.20;;;;;;;12.72;75.41;98027.72;5074037;28;20173;-90
2023/01/17 03:16:25;;;;;;;6.50;3.43;;;;;;;12.78;74.64;98032.50;5074281;28;20183;-89
2023/01/17 03:18:52;;;;;;;9.00;3.60;;;;;;;12.56;75.11;98011.47;5073866;28;20193;-89
2023/01/17 03:21:18;;;;;;;6.50;3.33;;;;;;;12.54;76.09;98017.81;5073907;28;20260;-89
2023/01/17 03:23:43;;;;;;;8.07;3.23;;;;;;;12.52;75.90;98004.78;5073882;28;20253;-89
2023/01/17 03:26:09;;;;;;;9.03;2.93;;;;;;;12.51;76.18;98004.91;5073835;28;20173;-89
2023/01/17 03:28:34;;;;;;;6.77;2.83;;;;;;;12.60;75.90;97991.88;5072820;28;20177;-89
2023/01/17 03:31:00;;;;;;;9.63;3.67;;;;;;;12.72;75.28;97990.06;5074005;28;20614;-89
2023/01/17 03:33:25;;;;;;;7.70;2.87;;;;;;;12.63;75.24;97982.94;5073043;28;20271;-89
2023/01/17 03:35:53;;;;;;;8.87;3.40;;;;;;;12.62;74.92;97984.72;5073622;28;20189;-89
2023/01/17 03:38:19;;;;;;;7.80;4.27;;;;;;;12.55;75.59;97973.00;5073788;28;20201;-89
2023/01/17 03:40:44;;;;;;;11.13;3.93;;;;;;;12.38;77.13;97960.34;5073625;28;20627;-89
2023/01/17 03:43:10;;;;;;;9.67;4.77;;;;;;;12.25;78.96;97957.00;5073518;28;20195;-89
2023/01/17 03:45:53;;;;;;;9.50;3.30;;;;;;;12.31;79.40;97959.16;5073853;28;20177;-89
2023/01/17 03:48:19;;;;;;;8.13;3.10;;;;;;;12.42;79.54;97971.47;5072835;28;20181;-90
2023/01/17 03:50:48;;;;;;;6.10;2.50;;;;;;;12.49;79.24;97984.00;5073540;28;20173;-89
2023/01/17 03:53:13;;;;;;;10.23;3.07;;;;;;;12.59;78.92;97987.56;5073677;28;20169;-88
2023/01/17 03:55:39;;;;;;;9.00;3.60;;;;;;;12.68;78.75;97980.75;5072420;28;20511;-90
2023/01/17 03:58:04;;;;;;;11.20;4.67;;;;;;;12.80;78.03;97964.00;5072202;28;20757;-89
2023/01/17 04:00:30;;;;;;;13.00;4.83;;;;;;;12.87;77.62;97959.91;5073578;28;20179;-88
2023/01/17 04:02:55;;;;;;;14.40;4.50;;;;;;;12.86;77.88;97939.84;5072681;28;20188;-89
2023/01/17 04:05:21;;;;;;;14.23;4.77;;;;;;;12.83;78.13;97940.94;5072827;28;20238;-89
2023/01/17 04:07:46;;;;;;;11.47;4.47;;;;;;;13.04;77.14;97948.03;5073229;28;20166;-88
2023/01/17 04:10:12;;;;;;;12.60;4.40;;;;;;;13.07;76.21;97953.94;5073178;28;20497;-89
2023/01/17 04:12:37;;;;;;;10.80;4.77;;;;;;;13.16;76.32;97941.78;5073161;28;20195;-89
2023/01/17 04:15:03;;;;;;;6.53;2.80;;;;;;;13.26;75.08;97950.63;5073667;28;20170;-89
2023/01/17 04:17:28;;;;;;;7.20;3.50;;;;;;;13.20;74.80;97959.03;5072909;28;20266;-89
2023/01/17 04:19:54;;;;;;;17.53;3.00;;;;;;;13.14;74.70;97962.97;5072456;28;20182;-88
2023/01/17 04:22:19;;;;;;;6.47;2.70;;;;;;;13.18;74.50;97966.22;5073073;28;20625;-89
2023/01/17 04:24:45;;;;;;;8.97;3.60;;;;;;;13.27;73.78;97966.28;5073602;28;20178;-88
2023/01/17 04:27:13;;;;;;;8.53;3.00;;;;;;;13.33;73.00;97950.00;5073157;28;20170;-89
2023/01/17 04:29:39;;;;;;;6.17;2.97;;;;;;;13.25;73.47;97957.69;5072997;28;20197;-89
2023/01/17 04:32:04;;;;;;;11.73;3.17;;;;;;;13.21;73.21;97951.00;5073528;28;20170;-89
2023/01/17 04:34:30;;;;;;;9.67;4.10;;;;;;;13.18;73.28;97947.78;5073246;28;20170;-89
2023/01/17 04:36:55;;;;;;;8.03;3.10;;;;;;;13.12;73.54;97943.03;5073201;28;20170;-89
2023/01/17 04:39:20;;;;;;;6.67;3.00;;;;;;;13.08;73.85;97934.53;5072809;28;20201;-89
2023/01/17 04:41:46;;;;;;;11.80;3.83;;;;;;;12.97;74.14;97936.34;5073204;28;20196;-89
2023/01/17 04:44:12;;;;;;;7.57;3.30;;;;;;;12.98;74.01;97938.00;5072850;28;20646;-89
2023/01/17 04:46:37;;;;;;;5.07;2.87;;;;;;;12.89;74.33;97953.56;5072874;28;20244;-89
2023/01/17 04:49:02;;;;;;;7.43;3.37;;;;;;;12.76;74.94;97958.13;5071854;28;20230;-89
2023/01/17 04:51:28;;;;;;;7.93;2.87;;;;;;;12.88;74.79;97944.03;5072881;28;20252;-89
2023/01/17 04:53:53;;;;;;;8.93;3.47;;;;;;;12.94;74.52;97950.59;5072743;28;20165;-88
2023/01/17 04:56:19;;;;;;;12.43;3.50;;;;;;;13.07;74.24;97956.56;5072715;28;20177;-89
2023/01/17 04:58:44;;;;;;;4.83;2.50;;;;;;;13.04;74.69;97945.41;5072946;28;20197;-89
2023/01/17 05:01:10;;;;;;;5.27;2.30;;;;;;;13.15;74.10;97940.16;5071689;28;20173;-89
2023/01/17 05:03:35;;;;;;;7.47;3.20;;;;;;;13.24;73.31;97931.47;5072673;28;20178;-89
2023/01/17 05:06:01;;;;;;;8.93;3.13;;;;;;;13.14;73.84;97935.84;5072656;28;20245;-89
2023/01/17 05:08:27;;;;;;;10.37;2.90;;;;;;;13.11;74.17;97922.94;5073162;28;20243;-89
2023/01/17 05:10:52;;;;;;;7.17;3.23;;;;;;;13.08;73.87;97913.50;5074063;28;20188;-88
2023/01/17 05:13:18;;;;;;;6.37;2.30;;;;;;;12.96;74.59;97914.47;5076659;28;20196;-88
2023/01/17 05:15:44;;;;;;;9.90;3.30;;;;;;;13.08;74.44;97912.66;5076560;28;20170;-88
2023/01/17 05:18:15;;;;;;;9.00;3.47;;;;;;;13.05;74.53;97903.19;5076525;28;20224;-89
2023/01/17 05:20:41;;;;;;;5.87;2.43;;;;;;;13.19;74.20;97891.56;5076329;28;20174;-90
2023/01/17 05:23:06;;;;;;;8.60;2.60;;;;;;;13.25;73.78;97898.97;5076206;28;20173;-89
2023/01/17 05:25:32;;;;;;;14.17;2.70;;;;;;;13.25;73.86;97894.53;5076380;28;20177;-91
2023/01/17 05:27:59;;;;;;;7.63;2.63;;;;;;;13.23;73.69;97900.88;5076134;28;20591;-88
2023/01/17 05:30:25;;;;;;;9.87;2.67;;;;;;;13.21;73.57;97889.63;5076129;28;20170;-89
2023/01/17 05:32:52;;;;;;;9.10;2.40;;;;;;;13.29;73.19;97889.84;5076260;28;20173;-89
2023/01/17 05:35:21;;;;;;;8.93;2.37;;;;;;;13.26;73.33;97893.56;5076020;28;20178;-89
2023/01/17 05:37:48;;;;;;;5.03;2.03;;;;;;;13.21;74.03;97895.72;5058432;28;20284;-89
2023/01/17 05:40:16;;;;;;;9.83;2.43;;;;;;;13.25;73.95;97889.28;5055976;28;20160;-89
2023/01/17 05:42:46;;;;;;;6.00;3.10;;;;;;;13.34;73.59;97899.03;5054378;28;20538;-88
2023/01/17 05:45:15;;;;;;;8.00;2.57;;;;;;;13.29;74.13;97893.31;5055143;28;20172;-89
2023/01/17 05:47:42;;;;;;;7.20;2.07;;;;;;;13.37;73.61;97890.03;5055725;28;20232;-88
2023/01/17 05:50:08;;;;;;;6.13;2.50;;;;;;;13.31;73.36;97906.34;5055721;28;20178;-88
2023/01/17 05:52:34;;;;;;;5.73;2.50;;;;;;;13.31;73.80;97917.69;5055941;28;20264;-88
2023/01/17 05:54:59;;;;;;;6.37;2.10;;;;;;;13.39;73.43;97920.53;5056039;28;20194;-89
2023/01/17 05:57:24;;;;;;;6.83;2.30;;;;;;;13.51;73.50;97930.06;5055659;28;20192;-88
2023/01/17 05:59:50;;;;;;;4.77;2.20;;;;;;;13.57;72.92;97941.88;5054930;28;20181;-89
2023/01/17 06:02:15;;;;;;;14.10;3.37;;;;;;;13.49;73.55;97945.09;5055504;28;20254;-87
2023/01/17 06:04:41;;;;;;;5.63;2.63;;;;;;;13.56;73.16;97950.72;5055572;28;20253;-89
2023/01/17 06:07:06;;;;;;;6.83;2.20;;;;;;;13.68;72.73;97962.03;5055442;28;20187;-89
2023/01/17 06:09:32;;;;;;;4.33;2.30;;;;;;;13.58;73.62;97964.56;5055668;28;20647;-88
2023/01/17 06:11:57;;;;;;;6.80;2.63;;;;;;;13.57;73.75;97974.25;5055316;28;20187;-86
2023/01/17 06:14:22;;;;;;;9.13;2.60;;;;;;;13.62;73.78;97970.44;5055287;28;20637;-89
2023/01/17 06:16:48;;;;;;;5.87;2.23;;;;;;;13.64;73.31;97969.34;5054305;28;20646;-92
2023/01/17 06:19:13;;;;;;;10.40;2.60;;;;;;;13.72;73.10;97981.88;5055472;28;20196;-89
2023/01/17 06:21:39;;;;;;;7.47;2.10;;;;;;;13.82;72.41;97993.28;5055116;28;20185;-91
2023/01/17 06:24:04;;;;;;;5.30;2.13;;;;;;;13.96;71.65;97970.13;5055557;28;20174;-89
2023/01/17 06:26:30;;;;;;;6.07;2.30;;;;;;;13.84;71.82;97965.88;5055349;28;20256;-89
2023/01/17 06:28:55;;;;;;;6.37;2.13;;;;;;;13.76;71.99;97952.50;5055101;28;20246;-89
2023/01/17 06:31:21;;;;;;;6.37;2.83;;;;;;;13.81;71.99;97942.41;5054987;28;20179;-89
2023/01/17 06:33:46;;;;;;;7.03;2.23;;;;;;;13.79;71.45;97946.16;5055051;28;20182;-88
2023/01/17 06:36:12;;;;;;;12.67;2.10;;;;;;;13.71;72.03;97954.69;5054915;28;20180;-89
2023/01/17 06:38:37;;;;;;;6.73;2.17;;;;;;;13.65;71.96;97944.69;5054851;28;20275;-90
2023/01/17 06:41:04;;;;;;;8.57;2.33;;;;;;;13.65;71.81;97965.75;5054200;28;20181;-91
2023/01/17 06:43:32;;;;;;;4.53;1.73;;;;;;;13.75;71.57;97960.53;5055015;28;20207;-88
2023/01/17 06:45:58;;;;;;;7.23;1.90;;;;;;;13.85;70.89;97956.16;5055184;28;20176;-89
2023/01/17 06:48:24;;;;;;;4.77;2.17;;;;;;;14.07;70.54;97964.75;5054675;28;20187;-90
2023/01/17 06:50:49;;;;;;;5.90;1.50;;;;;;;14.05;69.76;97964.03;5054738;28;20177;-90
2023/01/17 06:53:15;;;;;;;10.60;2.63;;;;;;;14.04;69.86;97935.22;5053644;28;20588;-90
2023/01/17 06:55:42;;;;;;;6.53;2.10;;;;;;;14.17;69.69;97930.56;5053605;28;20657;-91
2023/01/17 06:58:08;;;;;;;5.30;2.63;;;;;;;14.07;69.31;97946.31;5053502;28;20728;-90
2023/01/17 07:00:34;;;;;;;4.33;1.50;;;;;;;13.86;70.34;97950.75;5055043;28;20528;-88
2023/01/17 07:03:00;;;;;;;5.70;1.43;;;;;;;13.95;70.00;97950.00;5054805;28;20188;-91
2023/01/17 07:05:27;;;;;;;7.73;1.90;;;;;;;13.93;70.02;97954.56;5053463;28;20177;-88
2023/01/17 07:07:53;;;;;;;6.33;1.80;;;;;;;14.14;69.37;97944.84;5054539;28;20161;-88
2023/01/17 07:10:22;;;;;;;3.73;1.40;;;;;;;14.12;68.72;97943.28;5054820;28;20184;-89
2023/01/17 07:12:58;;;;;;;4.50;1.70;;;;;;;14.27;68.43;97935.84;5054827;28;20435;-90
2023/01/17 07:15:27;;;;;;;8.33;1.90;;;;;;;14.29;68.24;97955.84;5054507;28;20167;-91
2023/01/17 07:17:52;;;;;;;8.40;1.90;;;;;;;14.51;67.87;97957.50;5054345;28;20660;-91
2023/01/17 07:20:17;;;;;;;6.40;2.73;;;;;;;14.81;66.67;97946.88;5053977;28;20192;-91
2023/01/17 07:22:46;;;;;;;6.30;1.53;;;;;;;14.77;66.25;97934.94;5054291;28;20158;-90
2023/01/17 07:25:11;;;;;;;8.60;2.80;;;;;;;14.94;66.29;97934.25;5053047;28;20250;-90
2023/01/17 07:27:45;;;;;;;8.00;2.20;;;;;;;15.02;65.71;97938.84;5054318;28;20172;-90
2023/01/17 07:30:52;;;;;;;5.03;1.90;;;;;;;15.18;65.34;97950.53;5054064;28;20172;-92
2023/01/17 07:33:24;;;;;;;5.13;2.10;;;;;;;15.18;64.72;97969.03;5052537;28;20634;-90
2023/01/17 07:35:50;;;;;;;24.13;2.63;;;;;;;15.49;64.41;97972.38;5054288;28;20257;-92
2023/01/17 07:38:17;;;;;;;5.60;2.20;;;;;;;15.63;63.88;97977.25;5054221;28;20600;-88
2023/01/17 07:40:46;;;;;;;4.03;1.90;;;;;;;15.46;63.68;97987.69;5054328;28;20177;-91
2023/01/17 07:43:15;;;;;;;7.30;2.40;;;;;;;15.75;63.67;97977.94;5053139;28;20189;-92
2023/01/17 07:45:49;;;;;;;5.57;1.87;;;;;;;16.05;62.42;97988.31;5052816;28;20642;-91
2023/01/17 07:48:15;;;;;;;7.37;2.63;;;;;;;16.06;62.49;97986.53;5053294;28;20235;-91
2023/01/17 07:50:41;;;;;;;4.97;2.20;;;;;;;16.14;61.99;97976.88;5052696;28;20181;-91
2023/01/17 07:53:06;;;;;;;9.87;3.33;;;;;;;16.36;61.86;97973.06;5052685;28;20571;-90
2023/01/17 07:55:32;;;;;;;12.10;3.30;;;;;;;16.53;61.73;97983.72;5053614;28;20623;-91
2023/01/17 07:57:57;;;;;;;13.20;3.03;;;;;;;16.65;60.99;97978.25;5052545;28;20205;-91
2023/01/17 08:00:26;;;;;;;5.43;2.20;;;;;;;16.77;60.63;97979.75;5053642;28;20518;-91
2023/01/17 08:03:00;;;;;;;8.27;2.90;;;;;;;16.95;60.44;97970.03;5053490;28;20178;-90
2023/01/17 08:05:27;;;;;;;10.40;3.23;;;;;;;17.13;60.14;97968.25;5053477;28;20161;-91
2023/01/17 08:08:00;;;;;;;10.20;2.63;;;;;;;17.09;59.16;97969.50;5053913;28;20175;-92
2023/01/17 08:10:25;;;;;;;3.53;1.40;;;;;;;17.07;58.63;97971.47;5053449;28;20587;-89
2023/01/17 08:12:51;;;;;;;4.77;1.80;;;;;;;16.94;58.35;97968.34;5052558;28;20272;-92
2023/01/17 08:15:17;;;;;;;5.60;1.87;;;;;;;16.88;57.79;97966.28;5053699;28;20198;-91
2023/01/17 08:17:46;;;;;;;4.83;1.37;;;;;;;16.87;58.24;97964.66;5053529;28;20197;-90
2023/01/17 08:20:12;;;;;;;5.43;2.13;;;;;;;17.21;59.21;97963.03;5052387;28;20181;-92
2023/01/17 08:22:38;;;;;;;5.80;2.50;;;;;;;17.34;57.84;97960.84;5053560;28;20589;-91
2023/01/17 08:25:04;;;;;;;7.20;2.03;;;;;;;17.41;58.17;97953.94;5053146;28;20645;-91
2023/01/17 08:27:29;;;;;;;6.27;1.97;;;;;;;17.56;56.83;97957.75;5053177;28;20173;-91
2023/01/17 08:29:55;;;;;;;5.27;1.53;;;;;;;17.37;54.24;97957.91;5053360;28;20174;-92
2023/01/17 08:32:20;;;;;;;6.23;2.20;;;;;;;17.66;55.16;97969.09;5052350;28;20177;-92
2023/01/17 08:34:46;;;;;;;3.43;1.67;;;;;;;17.79;54.44;97969.53;5052228;28;20213;-93
2023/01/17 08:37:22;;;;;;;;;;;;;;;;;;;;;
2023/01/17 08:39:47;;;;;;;1.93;0.90;;;;;;;18.04;53.18;97986.47;5054084;28;20188;-91
2023/01/17 08:42:13;;;;;;;6.97;1.43;;;;;;;18.24;53.03;97984.41;5053280;28;20248;-92
2023/01/17 08:44:39;;;;;;;4.10;1.23;;;;;;;18.40;52.59;97982.69;5053076;28;20180;-91
2023/01/17 08:47:04;;;;;;;6.47;1.43;;;;;;;18.38;52.06;97989.16;5056445;28;20187;-91
2023/01/17 08:49:38;;;;;;;2.50;1.17;;;;;;;18.30;52.16;97989.09;5057038;28;20521;-92
2023/01/17 08:52:04;;;;;;;3.47;1.10;;;;;;;17.91;51.63;97999.28;5057088;28;20200;-92
2023/01/17 08:54:29;;;;;;;2.07;0.93;;;;;;;17.63;52.37;97993.28;5057325;28;20619;-92
2023/01/17 08:56:55;;;;;;;5.83;1.43;;;;;;;17.54;52.08;97996.81;5057037;28;20226;-92
2023/01/17 08:59:21;;;;;;;4.00;1.00;;;;;;;17.49;50.81;97996.41;5056717;28;20198;-88
2023/01/17 09:01:46;;;;;;;4.03;1.37;;;;;;;17.67;51.48;98001.72;5056786;28;20658;-90
2023/01/17 09:04:12;;;;;;;5.97;1.73;;;;;;;17.67;52.31;97999.06;5056167;28;20264;-91
2023/01/17 09:06:40;;;;;;;3.47;1.30;;;;;;;17.73;52.51;97988.72;5055715;28;20191;-90
2023/01/17 09:09:06;;;;;;;4.53;1.50;;;;;;;17.72;52.23;97983.53;5055759;28;20518;-91
2023/01/17 09:11:32;;;;;;;5.00;1.40;;;;;;;17.75;51.68;98000.00;5056579;28;20547;-91
2023/01/17 09:13:58;;;;;;;7.03;1.30;;;;;;;17.88;52.24;98004.88;5056822;28;20426;-90
2023/01/17 09:16:26;;;;;;;2.87;1.10;;;;;;;17.90;52.06;98018.00;5056504;28;20615;-91
2023/01/17 09:18:59;;;;;;;4.27;0.97;;;;;;;17.96;51.95;98004.94;5056270;28;20229;-91
2023/01/17 09:21:25;;;;;;;3.67;1.23;;;;;;;17.86;52.15;98011.34;5056996;28;20153;-91
2023/01/17 09:23:51;;;;;;;5.57;1.80;;;;;;;17.80;52.40;98018.91;5056313;28;20214;-91
2023/01/17 09:26:26;;;;;;;6.37;1.27;;;;;;;17.70;53.74;98020.81;5055360;28;20524;-90
2023/01/17 09:28:51;;;;;;;2.97;1.40;;;;;;;17.58;53.55;98023.84;5056257;28;20166;-91
2023/01/17 09:31:19;;;;;;;4.27;1.43;;;;;;;17.62;54.08;98012.78;5056484;28;20180;-90
2023/01/17 09:33:45;;;;;;;7.13;1.80;;;;;;;17.70;54.07;98007.56;5055230;28;20223;-90
2023/01/17 09:36:11;;;;;;;5.10;1.50;;;;;;;17.88;54.35;98001.41;5056067;28;20251;-90
2023/01/17 09:38:38;;;;;;;2.20;1.20;;;;;;;17.94;53.59;97998.16;5055594;28;20671;-91
2023/01/17 09:41:20;;;;;;;5.43;1.00;;;;;;;17.72;53.78;98005.59;5054233;28;20189;-91
2023/01/17 09:43:58;;;;;;;3.80;1.00;;;;;;;17.76;53.53;97991.06;5053912;28;20205;-91
2023/01/17 09:46:37;;;;;;;3.50;1.33;;;;;;;17.94;53.78;98003.44;5053720;28;20532;-90
2023/01/17 09:49:11;;;;;;;4.60;1.17;;;;;;;17.99;52.90;97995.84;5053822;28;20170;-88
2023/01/17 09:51:37;;;;;;;5.67;1.17;;;;;;;17.79;53.67;97998.69;5053669;28;20169;-90
2023/01/17 09:54:03;;;;;;;6.30;1.30;;;;;;;17.91;53.20;97999.28;5054544;28;20262;-90
2023/01/17 09:56:44;;;;;;;4.17;1.50;;;;;;;17.77;53.35;98000.66;5054346;28;20162;-89
2023/01/17 09:59:57;;;;;;;5.23;1.00;;;;;;;17.71;52.30;97998.63;5054928;28;20182;-89
2023/01/17 10:03:14;;;;;;;3.03;0.87;;;;;;;17.80;52.67;97980.97;5054522;28;20192;-91
2023/01/17 10:05:58;;;;;;;2.97;0.80;;;;;;;17.78;53.17;97983.78;5050396;28;20193;-91
2023/01/17 10:09:02;;;;;;;6.03;1.53;;;;;;;17.84;53.35;97982.34;5055001;28;20637;-92
2023/01/17 10:11:46;;;;;;;5.37;1.30;;;;;;;17.90;54.67;97983.53;5053415;28;20235;-90
2023/01/17 10:14:37;;;;;;;6.27;1.83;;;;;;;18.23;54.65;97998.69;5054802;28;20158;-91
2023/01/17 10:17:44;;;;;;;7.30;1.33;;;;;;;18.13;53.09;98001.41;5053875;28;20181;-91
2023/01/17 10:20:47;;;;;;;4.57;1.40;;;;;;;17.94;53.31;97998.16;5053495;28;20198;-89
2023/01/17 10:23:32;;;;;;;3.47;1.20;;;;;;;18.05;53.65;98000.56;5053209;28;20226;-90
2023/01/17 10:26:05;;;;;;;8.90;1.33;;;;;;;18.25;53.79;97997.53;5053102;28;20178;-91
2023/01/17 10:28:34;;;;;;;5.27;1.00;;;;;;;18.31;53.30;97998.75;5054328;28;20653;-91
2023/01/17 10:31:07;;;;;;;4.63;1.23;;;;;;;18.25;53.19;97992.25;5053938;28;20170;-90
2023/01/17 10:33:47;;;;;;;4.67;1.00;;;;;;;18.35;52.89;97973.56;5054209;28;20278;-90
2023/01/17 10:36:19;;;;;;;3.13;1.43;;;;;;;18.25;52.56;97967.53;5054245;28;20178;-91
2023/01/17 10:38:47;;;;;;;7.93;1.50;;;;;;;18.14;52.85;97976.56;5012164;28;1182873;-90
2023/01/17 10:41:31;;;;;;;4.77;1.13;;;;;;;18.11;53.13;97974.22;5054431;28;20177;-90
2023/01/17 10:44:24;;;;;;;6.30;2.20;;;;;;;18.06;53.16;97979.16;5055779;28;20162;-92
2023/01/17 10:47:04;;;;;;;7.37;2.97;;;;;;;18.17;53.78;97972.78;5054303;28;20182;-91
2023/01/17 10:49:29;;;;;;;10.47;3.63;;;;;;;18.22;53.36;97968.69;5055370;28;20208;-92
2023/01/17 10:52:00;;;;;;;5.70;1.87;;;;;;;18.09;52.96;97959.47;5054205;28;20187;-89
2023/01/17 10:54:35;;;;;;;4.13;1.47;;;;;;;18.05;53.44;97960.78;5055006;28;20253;-89
2023/01/17 10:57:01;;;;;;;4.90;1.70;;;;;;;18.12;53.33;97961.81;5055467;28;20162;-91
2023/01/17 10:59:35;;;;;;;11.43;2.07;;;;;;;18.25;52.34;97952.44;5055101;28;20198;-91
2023/01/17 11:02:07;;;;;;;5.97;1.97;;;;;;;18.39;52.94;97953.69;5054719;28;20214;-91
2023/01/17 11:04:36;;;;;;;4.30;1.20;;;;;;;18.43;52.73;97962.97;5055000;28;20158;-91
2023/01/17 11:07:28;;;;;;;5.87;1.60;;;;;;;18.39;52.24;97961.66;5054485;28;20251;-92
2023/01/17 11:09:56;;;;;;;6.90;1.50;;;;;;;18.33;52.98;97959.63;5053037;28;20276;-91
2023/01/17 11:12:43;;;;;;;4.63;1.37;;;;;;;18.24;53.14;97952.59;5054893;28;20253;-90
2023/01/17 11:15:09;;;;;;;3.17;1.10;;;;;;;18.16;52.95;97949.91;5054175;28;20178;-90
2023/01/17 11:17:47;;;;;;;4.70;1.40;;;;;;;18.01;54.53;97959.41;5053283;28;20188;-91
2023/01/17 11:20:31;;;;;;;4.00;1.13;;;;;;;17.95;55.24;97949.44;5053250;28;20170;-89
2023/01/17 11:23:11;;;;;;;9.43;1.47;;;;;;;17.94;55.64;97939.81;5054454;28;20157;-91
2023/01/17 11:25:37;;;;;;;2.63;0.97;;;;;;;18.06;55.12;97928.78;5054344;28;20165;-90
2023/01/17 11:28:16;;;;;;;4.20;1.53;;;;;;;17.96;55.55;97937.84;5053376;28;20200;-91
2023/01/17 11:30:56;;;;;;;2.73;0.83;;;;;;;18.11;55.42;97936.25;5053052;28;20170;-90
2023/01/17 11:33:47;;;;;;;3.63;1.10;;;;;;;18.15;54.55;97938.47;5053867;28;20640;-90
2023/01/17 11:36:27;;;;;;;2.10;0.87;;;;;;;18.08;54.91;97931.31;5054115;28;20268;-92
2023/01/17 11:38:55;;;;;;;5.37;1.97;;;;;;;18.16;55.30;97949.91;5052910;28;20595;-90
2023/01/17 11:41:22;;;;;;;6.73;1.83;;;;;;;18.07;55.59;97937.59;5053738;28;20255;-90
2023/01/17 11:43:56;;;;;;;8.57;2.00;;;;;;;17.99;55.62;97937.53;5053573;28;20174;-90
2023/01/17 11:46:22;;;;;;;5.83;1.00;;;;;;;18.02;54.86;97947.81;5053934;28;20169;-90
2023/01/17 11:48:59;;;;;;;8.23;1.40;;;;;;;18.04;54.51;97943.19;5053642;28;20178;-90
2023/01/17 11:51:27;;;;;;;3.50;1.10;;;;;;;18.11;54.04;97946.88;5054349;28;20575;-91
2023/01/17 11:53:54;;;;;;;4.83;1.80;;;;;;;17.95;54.15;97937.00;5053522;28;20178;-89
2023/01/17 11:56:31;;;;;;;4.30;1.43;;;;;;;18.15;53.56;97927.03;5052741;28;20292;-90
2023/01/17 11:59:30;;;;;;;6.33;1.53;;;;;;;18.13;53.31;97929.81;5052523;28;20562;-91
2023/01/17 12:02:19;;;;;;;6.00;2.13;;;;;;;18.29;53.90;97918.50;5052556;28;20631;-90
2023/01/17 12:04:57;;;;;;;9.33;2.33;;;;;;;18.28;53.04;97920.31;5053379;28;20197;-91
2023/01/17 12:07:40;;;;;;;7.57;2.40;;;;;;;18.28;52.89;97927.44;5052435;28;20204;-90
2023/01/17 12:10:24;;;;;;;7.87;1.60;;;;;;;18.46;52.92;97930.00;5053646;28;20200;-91
2023/01/17 12:18:55;;;;;;;9.27;2.47;;;;;;;18.44;52.60;97927.50;5053055;28;20697;-90
2023/01/17 12:21:34;;;;;;;5.20;2.30;;;;;;;18.39;53.18;97924.50;5052136;28;20200;-91
2023/01/17 12:24:02;;;;;;;7.40;2.03;;;;;;;18.51;52.37;97928.56;5053361;28;20199;-91
2023/01/17 12:26:39;;;;;;;18.10;2.20;;;;;;;18.59;52.76;97919.78;5053113;28;20186;-91
2023/01/17 12:29:33;;;;;;;5.47;1.70;;;;;;;18.72;52.24;97907.75;5052226;28;20184;-90
2023/01/17 12:32:07;;;;;;;11.40;1.93;;;;;;;18.81;51.83;97920.06;5052956;28;20204;-91
2023/01/17 12:34:49;;;;;;;4.70;1.30;;;;;;;18.94;51.77;97916.94;5053297;28;20615;-90
2023/01/17 12:37:31;;;;;;;8.50;1.83;;;;;;;18.75;51.77;97910.09;5053633;28;20161;-91
2023/01/17 12:40:13;;;;;;;5.60;1.43;;;;;;;18.77;51.06;97902.78;5053286;28;20181;-91
2023/01/17 12:42:53;;;;;;;8.53;1.80;;;;;;;18.76;51.74;97895.00;5052341;28;20193;-91
2023/01/17 12:45:30;;;;;;;6.60;2.27;;;;;;;18.84;51.37;97897.66;5052949;28;20165;-90
2023/01/17 12:48:08;;;;;;;5.40;1.73;;;;;;;19.01;51.54;97902.00;5053345;28;20608;-91
2023/01/17 12:50:52;;;;;;;7.53;1.77;;;;;;;18.98;50.86;97894.34;5053237;28;20166;-91
2023/01/17 12:53:54;;;;;;;6.43;1.90;;;;;;;18.89;50.95;97905.97;5053181;28;20172;-91
2023/01/17 12:56:23;;;;;;;8.33;1.43;;;;;;;18.81;51.45;97903.28;5052881;28;20581;-91
2023/01/17 12:58:58;;;;;;;6.13;1.83;;;;;;;18.82;51.54;97902.28;5053062;28;20529;-92
2023/01/17 13:01:38;;;;;;;7.80;2.07;;;;;;;18.81;51.77;97884.72;5053197;28;20169;-90
2023/01/17 13:04:18;;;;;;;4.33;1.37;;;;;;;18.64;51.21;97893.59;5053008;28;20166;-94
2023/01/17 13:06:49;;;;;;;5.10;1.10;;;;;;;18.53;51.70;97900.03;5053007;28;20180;-90
2023/01/17 13:09:20;;;;;;;8.17;1.50;;;;;;;18.54;52.10;97901.72;5052971;28;20201;-90
2023/01/17 13:11:51;;;;;;;5.43;1.47;;;;;;;18.66;51.99;97895.09;5052900;28;20166;-89
2023/01/17 13:14:17;;;;;;;6.87;2.60;;;;;;;18.63;52.21;97903.38;5053076;28;20165;-91
2023/01/17 13:17:03;;;;;;;8.10;2.53;;;;;;;18.72;51.84;97904.25;5052653;28;20170;-91
2023/01/17 13:20:01;;;;;;;6.23;2.77;;;;;;;18.91;51.84;97901.31;5052479;28;20205;-91
2023/01/17 13:22:28;;;;;;;8.53;2.13;;;;;;;18.91;50.92;97910.13;5053219;28;20240;-91
2023/01/17 13:25:22;;;;;;;6.03;1.40;;;;;;;18.92;51.29;97908.28;5052025;28;20534;-90